Time;durP1;ratioP1;P1;durP2;ratioP2;P2;SDS_P1;SDS_P2;PMS_P1;PMS_P2;Temp;Humidity;BMP_temperature;BMP_pressure;BME280_temperature;BME280_humidity;BME280_pressure;Samples;Min_cycle;Max_cycle;Signal;HPM_P1;HPM_P2
2023/05/28 00:01:17;;;;;;;;;;;9.50;85.20;;;;;;4985660;28;19956;-73
2023/05/28 00:03:44;;;;;;;;;;;9.40;85.00;;;;;;5006708;28;20386;-73
2023/05/28 00:06:11;;;;;;;;;;;9.40;86.20;;;;;;5009083;28;19937;-73
2023/05/28 00:08:38;;;;;;;;;;;9.30;86.00;;;;;;5009759;28;20035;-73
2023/05/28 00:11:05;;;;;;;;;;;9.30;86.70;;;;;;4990796;28;20381;-73
2023/05/28 00:13:33;;;;;;;;;;;9.20;87.20;;;;;;4993651;28;19929;-74
2023/05/28 00:16:00;;;;;;;;;;;9.20;86.40;;;;;;5013498;28;19929;-73
2023/05/28 00:18:28;;;;;;;;;;;9.10;85.40;;;;;;4989524;28;19937;-74
2023/05/28 00:20:55;;;;;;;;;;;9.00;85.90;;;;;;5007366;28;20024;-73
2023/05/28 00:23:22;;;;;;;;;;;9.00;86.30;;;;;;5005855;28;19982;-74
2023/05/28 00:25:49;;;;;;;;;;;9.00;86.60;;;;;;5007088;28;19943;-73
2023/05/28 00:28:16;;;;;;;;;;;8.90;86.50;;;;;;5013304;28;19936;-74
2023/05/28 00:30:43;;;;;;;;;;;8.90;86.80;;;;;;5001700;28;20043;-73
2023/05/28 00:33:09;;;;;;;;;;;8.80;87.00;;;;;;5006179;28;20008;-74
2023/05/28 00:35:36;;;;;;;;;;;8.80;88.00;;;;;;4991389;28;19933;-74
2023/05/28 00:38:03;;;;;;;;;;;8.80;87.90;;;;;;5011576;28;19933;-74
2023/05/28 00:40:30;;;;;;;;;;;8.80;87.30;;;;;;5007197;28;20385;-73
2023/05/28 00:42:56;;;;;;;;;;;8.80;87.30;;;;;;4997167;28;20537;-74
2023/05/28 00:45:23;;;;;;;;;;;8.70;87.20;;;;;;4991713;28;20082;-74
2023/05/28 00:47:50;;;;;;;;;;;8.70;87.50;;;;;;5009751;28;19983;-73
2023/05/28 00:50:17;;;;;;;;;;;8.70;87.30;;;;;;5008154;28;19968;-74
2023/05/28 00:52:46;;;;;;;;;;;8.60;87.20;;;;;;4987776;28;20036;-74
2023/05/28 00:55:14;;;;;;;;;;;8.60;87.10;;;;;;5013456;28;19936;-74
2023/05/28 00:57:41;;;;;;;;;;;8.50;87.40;;;;;;4988900;28;19952;-73
2023/05/28 01:00:08;;;;;;;;;;;8.50;87.50;;;;;;4992108;28;19972;-74
2023/05/28 01:02:35;;;;;;;;;;;8.40;87.70;;;;;;5005096;28;19975;-73
2023/05/28 01:05:03;;;;;;;;;;;8.40;87.30;;;;;;5010643;28;19947;-74
2023/05/28 01:07:30;;;;;;;;;;;8.30;87.60;;;;;;5005912;28;19933;-74
2023/05/28 01:09:56;;;;;;;;;;;8.30;87.10;;;;;;4998440;28;20338;-74
2023/05/28 01:12:24;;;;;;;;;;;8.20;86.90;;;;;;5007919;28;19930;-74
2023/05/28 01:14:52;;;;;;;;;;;8.20;86.50;;;;;;4990285;28;19930;-74
2023/05/28 01:17:19;;;;;;;;;;;8.20;86.60;;;;;;5006977;28;20107;-74
2023/05/28 01:19:46;;;;;;;;;;;8.10;85.60;;;;;;5010338;28;20018;-74
2023/05/28 01:22:16;;;;;;;;;;;8.00;86.80;;;;;;5007716;28;19929;-74
2023/05/28 01:24:46;;;;;;;;;;;8.10;86.40;;;;;;4987952;28;20207;-74
2023/05/28 01:27:12;;;;;;;;;;;8.00;86.40;;;;;;5005027;28;19973;-74
2023/05/28 01:29:39;;;;;;;;;;;8.00;86.10;;;;;;5006804;28;19929;-73
2023/05/28 01:32:06;;;;;;;;;;;7.90;85.50;;;;;;5006857;28;19940;-73
2023/05/28 01:34:33;;;;;;;;;;;7.90;86.50;;;;;;5004545;28;19995;-74
2023/05/28 01:37:07;;;;;;;;;;;7.90;86.40;;;;;;4987056;28;19932;-74
2023/05/28 01:39:38;;;;;;;;;;;7.80;86.80;;;;;;4993353;28;20305;-74
2023/05/28 01:42:06;;;;;;;;;;;7.80;86.40;;;;;;4986381;28;20298;-74
2023/05/28 01:44:33;;;;;;;;;;;7.70;87.20;;;;;;4995435;28;20019;-74
2023/05/28 01:47:00;;;;;;;;;;;7.70;86.70;;;;;;4991414;28;20407;-74
2023/05/28 01:49:27;;;;;;;;;;;7.70;87.00;;;;;;5006421;28;19929;-74
2023/05/28 01:51:55;;;;;;;;;;;7.60;87.60;;;;;;5005905;28;19937;-74
2023/05/28 01:54:22;;;;;;;;;;;7.60;86.80;;;;;;5001120;28;20345;-74
2023/05/28 01:56:49;;;;;;;;;;;7.60;87.20;;;;;;5006585;28;20001;-74
2023/05/28 01:59:16;;;;;;;;;;;7.60;86.90;;;;;;5000720;28;20012;-74
2023/05/28 02:01:43;;;;;;;;;;;7.50;87.10;;;;;;4999900;28;19930;-74
2023/05/28 02:04:09;;;;;;;;;;;7.50;87.40;;;;;;4998488;28;19929;-73
2023/05/28 02:06:36;;;;;;;;;;;7.50;87.70;;;;;;5005377;28;19932;-74
2023/05/28 02:09:03;;;;;;;;;;;7.50;88.10;;;;;;4997452;28;19941;-73
2023/05/28 02:11:30;;;;;;;;;;;7.40;87.80;;;;;;5019916;28;19929;-74
2023/05/28 02:13:57;;;;;;;;;;;7.50;88.10;;;;;;4993847;28;20445;-74
2023/05/28 02:16:24;;;;;;;;;;;7.50;88.00;;;;;;4994709;28;19929;-73
2023/05/28 02:18:52;;;;;;;;;;;7.40;87.30;;;;;;4995555;28;19929;-74
2023/05/28 02:21:19;;;;;;;;;;;7.40;88.00;;;;;;5028500;28;20397;-74
2023/05/28 02:23:47;;;;;;;;;;;7.40;88.30;;;;;;5001396;28;20820;-73
2023/05/28 02:26:14;;;;;;;;;;;7.30;87.70;;;;;;5001587;28;20031;-74
2023/05/28 02:28:43;;;;;;;;;;;7.20;87.50;;;;;;4995672;28;20712;-73
2023/05/28 02:31:10;;;;;;;;;;;7.20;87.70;;;;;;5032389;28;19938;-73
2023/05/28 02:33:38;;;;;;;;;;;7.20;87.80;;;;;;5003694;28;19960;-74
2023/05/28 02:36:06;;;;;;;;;;;7.10;88.00;;;;;;5004076;28;20401;-73
2023/05/28 02:38:32;;;;;;;;;;;7.20;88.00;;;;;;5004239;28;19930;-73
2023/05/28 02:40:59;;;;;;;;;;;7.10;88.00;;;;;;5008956;28;19933;-73
2023/05/28 02:43:26;;;;;;;;;;;7.10;88.20;;;;;;5007920;28;20379;-74
2023/05/28 02:45:53;;;;;;;;;;;7.10;88.30;;;;;;5003644;28;20057;-73
2023/05/28 02:48:20;;;;;;;;;;;7.10;87.90;;;;;;5003413;28;20031;-73
2023/05/28 02:50:47;;;;;;;;;;;7.00;87.70;;;;;;5008982;28;20027;-74
2023/05/28 02:53:13;;;;;;;;;;;7.00;88.00;;;;;;5003794;28;19929;-74
2023/05/28 02:55:40;;;;;;;;;;;7.00;88.30;;;;;;4986207;28;20021;-74
2023/05/28 02:58:07;;;;;;;;;;;6.90;89.20;;;;;;5004243;28;20240;-74
2023/05/28 03:00:34;;;;;;;;;;;6.80;89.20;;;;;;4978859;28;19961;-73
2023/05/28 03:03:01;;;;;;;;;;;6.80;89.10;;;;;;4987336;28;20179;-73
2023/05/28 03:05:28;;;;;;;;;;;6.80;89.30;;;;;;5005374;28;20315;-73
2023/05/28 03:07:55;;;;;;;;;;;6.80;89.30;;;;;;4986321;28;19929;-74
2023/05/28 03:10:22;;;;;;;;;;;6.70;88.90;;;;;;4992247;28;19948;-74
2023/05/28 03:12:48;;;;;;;;;;;6.70;88.70;;;;;;5002266;28;20366;-74
2023/05/28 03:15:15;;;;;;;;;;;6.60;89.20;;;;;;4997511;28;19929;-74
2023/05/28 03:17:42;;;;;;;;;;;6.60;89.60;;;;;;5009501;28;20480;-74
2023/05/28 03:20:12;;;;;;;;;;;6.60;89.50;;;;;;5011214;28;20008;-74
2023/05/28 03:22:39;;;;;;;;;;;6.60;89.60;;;;;;4983775;28;19933;-73
2023/05/28 03:25:06;;;;;;;;;;;6.60;89.20;;;;;;5001170;28;20363;-74
2023/05/28 03:27:32;;;;;;;;;;;6.70;88.80;;;;;;4987915;28;20116;-74
2023/05/28 03:29:59;;;;;;;;;;;6.70;88.80;;;;;;4990038;28;20416;-74
2023/05/28 03:32:26;;;;;;;;;;;6.70;88.50;;;;;;4988267;28;20004;-74
2023/05/28 03:34:52;;;;;;;;;;;6.60;88.10;;;;;;5007258;28;19933;-74
2023/05/28 03:37:19;;;;;;;;;;;6.60;88.30;;;;;;5009733;28;19939;-74
2023/05/28 03:39:46;;;;;;;;;;;6.70;88.70;;;;;;5005454;28;20020;-74
2023/05/28 03:42:13;;;;;;;;;;;6.60;88.10;;;;;;5005046;28;19991;-74
2023/05/28 03:44:40;;;;;;;;;;;6.60;88.50;;;;;;5003433;28;20027;-74
2023/05/28 03:47:06;;;;;;;;;;;6.60;88.30;;;;;;5005532;28;19971;-74
2023/05/28 03:49:33;;;;;;;;;;;6.70;89.10;;;;;;4985106;28;19934;-74
2023/05/28 03:52:00;;;;;;;;;;;6.70;89.40;;;;;;5000871;28;20437;-74
2023/05/28 03:54:26;;;;;;;;;;;6.70;89.00;;;;;;5010741;28;20297;-73
2023/05/28 03:56:53;;;;;;;;;;;6.70;88.10;;;;;;5006237;28;19929;-74
2023/05/28 03:59:20;;;;;;;;;;;6.60;88.20;;;;;;5004470;28;20026;-74
2023/05/28 04:01:47;;;;;;;;;;;6.60;88.50;;;;;;5004877;28;19929;-73
2023/05/28 04:04:13;;;;;;;;;;;6.70;89.20;;;;;;5001299;28;19933;-73
2023/05/28 04:06:41;;;;;;;;;;;6.70;89.90;;;;;;5001793;28;20367;-73
2023/05/28 04:09:08;;;;;;;;;;;6.80;89.50;;;;;;5005630;28;20336;-74
2023/05/28 04:11:37;;;;;;;;;;;6.80;89.50;;;;;;4996945;28;19929;-73
2023/05/28 04:14:03;;;;;;;;;;;6.80;90.00;;;;;;5002302;28;20013;-73
2023/05/28 04:16:31;;;;;;;;;;;6.90;90.20;;;;;;5001939;28;20378;-73
2023/05/28 04:19:00;;;;;;;;;;;7.00;90.40;;;;;;4998243;28;20014;-73
2023/05/28 04:21:28;;;;;;;;;;;7.00;90.00;;;;;;5006917;28;19940;-74
2023/05/28 04:23:55;;;;;;;;;;;7.10;90.10;;;;;;5003697;28;20391;-73
2023/05/28 04:26:22;;;;;;;;;;;7.20;90.00;;;;;;5000834;28;19976;-73
2023/05/28 04:28:50;;;;;;;;;;;7.20;90.40;;;;;;5009865;28;20047;-73
2023/05/28 04:31:17;;;;;;;;;;;7.20;90.00;;;;;;4995522;28;19929;-74
2023/05/28 04:33:46;;;;;;;;;;;7.30;90.90;;;;;;5000023;28;20052;-73
2023/05/28 04:36:16;;;;;;;;;;;7.30;90.60;;;;;;5006641;28;19936;-73
2023/05/28 04:38:43;;;;;;;;;;;7.30;90.50;;;;;;5005161;28;20562;-73
2023/05/28 04:41:13;;;;;;;;;;;7.40;90.90;;;;;;5007379;28;21238;-73
2023/05/28 04:43:41;;;;;;;;;;;7.50;91.20;;;;;;5001919;28;19976;-73
2023/05/28 04:46:08;;;;;;;;;;;7.60;90.80;;;;;;5003778;28;20521;-74
2023/05/28 04:48:35;;;;;;;;;;;7.60;91.30;;;;;;5002028;28;20575;-73
2023/05/28 04:51:08;;;;;;;;;;;7.70;91.50;;;;;;5009047;28;19976;-73
2023/05/28 04:53:35;;;;;;;;;;;7.80;91.50;;;;;;5007828;28;19936;-73
2023/05/28 04:56:03;;;;;;;;;;;7.90;91.60;;;;;;5010913;28;20434;-73
2023/05/28 04:58:30;;;;;;;;;;;8.00;91.10;;;;;;5010167;28;20390;-73
2023/05/28 05:00:56;;;;;;;;;;;8.10;90.90;;;;;;4988979;28;19935;-73
2023/05/28 05:03:23;;;;;;;;;;;8.20;91.00;;;;;;5005040;28;20473;-73
2023/05/28 05:05:50;;;;;;;;;;;8.30;90.90;;;;;;4985864;28;19936;-73
2023/05/28 05:08:17;;;;;;;;;;;8.30;90.40;;;;;;5006282;28;20671;-73
2023/05/28 05:10:43;;;;;;;;;;;8.40;90.60;;;;;;5006743;28;20153;-73
2023/05/28 05:13:10;;;;;;;;;;;8.50;91.10;;;;;;4997121;28;19981;-73
2023/05/28 05:15:37;;;;;;;;;;;8.60;90.90;;;;;;5007521;28;19929;-73
2023/05/28 05:18:04;;;;;;;;;;;8.60;91.10;;;;;;4989751;28;20365;-73
2023/05/28 05:20:31;;;;;;;;;;;8.70;90.90;;;;;;4993532;28;19934;-73
2023/05/28 05:22:58;;;;;;;;;;;8.80;90.40;;;;;;5005775;28;19952;-73
2023/05/28 05:25:25;;;;;;;;;;;8.90;90.40;;;;;;4987456;28;20005;-73
2023/05/28 05:27:51;;;;;;;;;;;9.00;89.80;;;;;;5005828;28;19930;-73
2023/05/28 05:30:18;;;;;;;;;;;9.10;90.20;;;;;;5006725;28;20020;-74
2023/05/28 05:32:46;;;;;;;;;;;9.20;90.10;;;;;;5007753;28;20414;-73
2023/05/28 05:35:14;;;;;;;;;;;9.30;90.10;;;;;;4993542;28;20042;-74
2023/05/28 05:37:41;;;;;;;;;;;9.30;89.60;;;;;;5004884;28;20051;-74
2023/05/28 05:40:09;;;;;;;;;;;9.50;90.00;;;;;;5008356;28;19930;-74
2023/05/28 05:42:36;;;;;;;;;;;9.60;89.90;;;;;;5006275;28;19937;-74
2023/05/28 05:45:05;;;;;;;;;;;9.70;89.70;;;;;;5003836;28;19929;-74
2023/05/28 05:47:31;;;;;;;;;;;9.80;89.30;;;;;;4987561;28;19929;-74
2023/05/28 05:49:58;;;;;;;;;;;9.90;88.70;;;;;;4990446;28;19929;-74
2023/05/28 05:52:25;;;;;;;;;;;10.10;88.70;;;;;;4999729;28;19929;-74
2023/05/28 05:54:51;;;;;;;;;;;10.20;87.80;;;;;;5011429;28;19952;-74
2023/05/28 05:57:18;;;;;;;;;;;10.30;87.10;;;;;;5007411;28;20007;-74
2023/05/28 05:59:45;;;;;;;;;;;10.50;87.60;;;;;;4989844;28;20234;-74
2023/05/28 06:02:12;;;;;;;;;;;10.70;87.40;;;;;;5002439;28;19930;-74
2023/05/28 06:04:38;;;;;;;;;;;10.80;87.40;;;;;;4993119;28;19941;-74
2023/05/28 06:07:06;;;;;;;;;;;11.00;87.10;;;;;;5005101;28;20377;-74
2023/05/28 06:09:33;;;;;;;;;;;11.20;86.10;;;;;;4983086;28;19937;-74
2023/05/28 06:12:01;;;;;;;;;;;11.50;85.50;;;;;;5005446;28;20141;-74
2023/05/28 06:14:28;;;;;;;;;;;11.90;84.90;;;;;;5001775;28;20059;-74
2023/05/28 06:16:55;;;;;;;;;;;12.20;82.00;;;;;;4990030;28;20477;-74
2023/05/28 06:19:22;;;;;;;;;;;12.50;82.30;;;;;;4984281;28;19933;-74
2023/05/28 06:21:51;;;;;;;;;;;12.80;80.30;;;;;;5011402;28;20421;-74
2023/05/28 06:24:18;;;;;;;;;;;13.10;79.70;;;;;;4987952;28;20661;-74
2023/05/28 06:26:45;;;;;;;;;;;13.50;78.60;;;;;;4991146;28;20621;-75
2023/05/28 06:29:12;;;;;;;;;;;13.90;75.90;;;;;;4996536;28;19949;-75
2023/05/28 06:31:40;;;;;;;;;;;14.10;75.10;;;;;;5018054;28;19960;-74
2023/05/28 06:34:07;;;;;;;;;;;14.40;74.70;;;;;;5003698;28;20057;-75
2023/05/28 06:36:35;;;;;;;;;;;14.60;73.10;;;;;;4991027;28;20320;-75
2023/05/28 06:39:04;;;;;;;;;;;14.90;72.70;;;;;;4991364;28;19929;-75
2023/05/28 06:41:31;;;;;;;;;;;15.20;70.30;;;;;;4991848;28;20517;-75
2023/05/28 06:43:58;;;;;;;;;;;15.50;71.50;;;;;;5002700;28;19979;-75
2023/05/28 06:46:25;;;;;;;;;;;15.80;69.80;;;;;;4988152;28;19934;-74
2023/05/28 06:48:52;;;;;;;;;;;16.10;67.90;;;;;;5003688;28;19929;-76
2023/05/28 06:51:18;;;;;;;;;;;16.30;66.20;;;;;;5002337;28;19930;-75
2023/05/28 06:53:45;;;;;;;;;;;16.40;65.40;;;;;;5005980;28;19929;-76
2023/05/28 06:56:12;;;;;;;;;;;16.80;65.30;;;;;;5001900;28;19925;-78
2023/05/28 06:58:39;;;;;;;;;;;17.00;65.60;;;;;;5003038;28;20770;-76
2023/05/28 07:01:05;;;;;;;;;;;17.20;65.10;;;;;;5004466;28;19969;-77
2023/05/28 07:03:32;;;;;;;;;;;17.50;63.40;;;;;;5006781;28;19976;-77
2023/05/28 07:05:59;;;;;;;;;;;17.90;63.90;;;;;;5006674;28;19930;-77
2023/05/28 07:08:26;;;;;;;;;;;18.20;61.10;;;;;;5007086;28;19960;-79
2023/05/28 07:10:53;;;;;;;;;;;18.40;59.50;;;;;;5003745;28;20620;-78
2023/05/28 07:13:20;;;;;;;;;;;18.70;59.50;;;;;;5006575;28;19975;-78
2023/05/28 07:15:46;;;;;;;;;;;19.10;57.10;;;;;;5006226;28;19975;-80
2023/05/28 07:18:13;;;;;;;;;;;19.30;56.10;;;;;;5021605;28;20000;-81
2023/05/28 07:20:40;;;;;;;;;;;19.50;55.80;;;;;;5001205;28;19975;-79
2023/05/28 07:23:07;;;;;;;;;;;19.80;56.10;;;;;;5013002;28;20350;-79
2023/05/28 07:25:34;;;;;;;;;;;20.00;56.30;;;;;;5001492;28;20076;-79
2023/05/28 07:28:01;;;;;;;;;;;20.40;53.40;;;;;;5003728;28;19988;-78
2023/05/28 07:30:28;;;;;;;;;;;20.40;53.10;;;;;;5001826;28;19929;-77
2023/05/28 07:32:55;;;;;;;;;;;20.50;52.70;;;;;;5015840;28;20390;-78
2023/05/28 07:35:22;;;;;;;;;;;20.80;51.30;;;;;;5032545;28;19930;-74
2023/05/28 07:37:48;;;;;;;;;;;21.10;51.00;;;;;;5033654;28;20481;-74
2023/05/28 07:40:15;;;;;;;;;;;21.20;51.00;;;;;;5032516;28;19991;-74
2023/05/28 07:42:42;;;;;;;;;;;21.50;51.80;;;;;;5002153;28;19930;-74
2023/05/28 07:45:09;;;;;;;;;;;21.40;51.00;;;;;;4998715;28;19980;-74
2023/05/28 07:47:36;;;;;;;;;;;21.80;49.20;;;;;;4993653;28;19929;-74
2023/05/28 07:50:04;;;;;;;;;;;22.20;48.30;;;;;;5000016;28;19984;-74
2023/05/28 07:52:31;;;;;;;;;;;22.40;48.80;;;;;;5006335;28;20039;-75
2023/05/28 07:54:58;;;;;;;;;;;22.50;48.90;;;;;;5008058;28;20038;-75
2023/05/28 07:57:25;;;;;;;;;;;22.90;47.90;;;;;;4998465;28;20374;-75
2023/05/28 07:59:52;;;;;;;;;;;22.80;49.50;;;;;;5000783;28;19933;-75
2023/05/28 08:02:18;;;;;;;;;;;23.00;49.20;;;;;;5001478;28;20040;-74
2023/05/28 08:04:45;;;;;;;;;;;23.00;50.50;;;;;;5014930;28;19929;-75
2023/05/28 08:07:13;;;;;;;;;;;23.10;48.80;;;;;;5001211;28;19929;-74
2023/05/28 08:09:41;;;;;;;;;;;23.40;48.40;;;;;;5003122;28;20336;-74
2023/05/28 08:12:09;;;;;;;;;;;23.50;48.30;;;;;;4994836;28;20038;-75
2023/05/28 08:14:36;;;;;;;;;;;23.50;47.80;;;;;;5007589;28;19929;-74
2023/05/28 08:17:02;;;;;;;;;;;23.60;48.00;;;;;;5015822;28;19929;-72
2023/05/28 08:19:30;;;;;;;;;;;23.40;46.20;;;;;;5021404;28;20025;-72
2023/05/28 08:21:57;;;;;;;;;;;23.30;47.60;;;;;;4996133;28;20367;-71
2023/05/28 08:24:24;;;;;;;;;;;23.90;46.50;;;;;;5001595;28;20257;-72
2023/05/28 08:26:51;;;;;;;;;;;24.10;46.80;;;;;;5005344;28;20040;-72
2023/05/28 08:29:18;;;;;;;;;;;24.30;47.20;;;;;;5006679;28;19992;-72
2023/05/28 08:31:45;;;;;;;;;;;24.90;45.90;;;;;;5004670;28;19936;-72
2023/05/28 08:34:12;;;;;;;;;;;25.30;44.90;;;;;;5007467;28;20616;-72
2023/05/28 08:36:38;;;;;;;;;;;25.60;43.40;;;;;;5016825;28;19929;-72
2023/05/28 08:39:08;;;;;;;;;;;25.10;45.10;;;;;;4999987;28;19952;-72
2023/05/28 08:41:35;;;;;;;;;;;25.00;44.40;;;;;;5003671;28;20032;-72
2023/05/28 08:44:02;;;;;;;;;;;25.30;43.30;;;;;;5018809;28;20216;-72
2023/05/28 08:46:30;;;;;;;;;;;25.30;43.90;;;;;;5003801;28;20012;-72
2023/05/28 08:48:57;;;;;;;;;;;25.70;43.70;;;;;;5003517;28;20004;-72
2023/05/28 08:51:27;;;;;;;;;;;26.10;42.80;;;;;;4988925;28;20061;-72
2023/05/28 08:53:54;;;;;;;;;;;25.60;42.10;;;;;;4990021;28;20045;-72
2023/05/28 08:56:21;;;;;;;;;;;25.70;42.60;;;;;;4985415;28;20044;-72
2023/05/28 08:58:48;;;;;;;;;;;26.10;43.70;;;;;;4974199;28;19930;-71
2023/05/28 09:01:15;;;;;;;;;;;25.90;43.90;;;;;;4980481;28;20568;-72
2023/05/28 09:03:42;;;;;;;;;;;26.40;42.80;;;;;;4982151;28;19937;-72
2023/05/28 09:06:09;;;;;;;;;;;26.80;41.90;;;;;;4984086;28;19937;-72
2023/05/28 09:08:36;;;;;;;;;;;27.40;38.10;;;;;;4989637;28;19929;-72
2023/05/28 09:11:10;;;;;;;;;;;26.70;38.50;;;;;;4986484;28;20012;-72
2023/05/28 09:13:44;;;;;;;;;;;26.40;39.20;;;;;;4983444;28;19960;-72
2023/05/28 09:16:12;;;;;;;;;;;26.10;39.10;;;;;;4983814;28;20040;-72
2023/05/28 09:18:41;;;;;;;;;;;26.20;39.30;;;;;;4966331;28;19930;-72
2023/05/28 09:21:11;;;;;;;;;;;25.90;39.10;;;;;;4967809;28;19937;-72
2023/05/28 09:23:39;;;;;;;;;;;25.40;40.60;;;;;;4962794;28;19950;-71
2023/05/28 09:26:08;;;;;;;;;;;25.00;42.00;;;;;;4982930;28;20484;-72
2023/05/28 09:28:35;;;;;;;;;;;24.70;43.60;;;;;;4990478;28;19929;-73
2023/05/28 09:31:03;;;;;;;;;;;24.60;43.30;;;;;;4976249;28;19934;-73
2023/05/28 09:33:30;;;;;;;;;;;24.20;46.30;;;;;;4979489;28;20609;-72
2023/05/28 09:36:01;;;;;;;;;;;24.00;46.60;;;;;;4979649;28;19937;-72
2023/05/28 09:38:38;;;;;;;;;;;23.70;47.80;;;;;;4981857;28;20016;-74
2023/05/28 09:41:05;;;;;;;;;;;23.50;48.50;;;;;;4965871;28;19934;-73
2023/05/28 09:43:32;;;;;;;;;;;23.60;48.20;;;;;;4984753;28;20645;-74
2023/05/28 09:46:08;;;;;;;;;;;23.80;48.30;;;;;;4990633;28;19939;-73
2023/05/28 09:48:35;;;;;;;;;;;23.50;49.60;;;;;;4986204;28;19930;-73
2023/05/28 09:51:07;;;;;;;;;;;23.50;50.60;;;;;;4995382;28;20539;-74
2023/05/28 09:53:36;;;;;;;;;;;24.30;48.20;;;;;;5003236;28;20748;-73
2023/05/28 09:56:03;;;;;;;;;;;24.60;46.40;;;;;;5001409;28;19936;-73
2023/05/28 09:58:34;;;;;;;;;;;24.10;46.30;;;;;;5002630;28;19929;-74
2023/05/28 10:01:04;;;;;;;;;;;24.00;47.50;;;;;;4998086;28;19929;-73
2023/05/28 10:03:37;;;;;;;;;;;24.00;48.60;;;;;;4998485;28;20488;-73
2023/05/28 10:06:06;;;;;;;;;;;24.20;48.80;;;;;;5000217;28;19929;-78
2023/05/28 10:08:39;;;;;;;;;;;24.50;48.10;;;;;;5004845;28;20469;-73
2023/05/28 10:11:08;;;;;;;;;;;24.90;46.30;;;;;;5002284;28;19929;-74
2023/05/28 10:13:35;;;;;;;;;;;25.10;46.10;;;;;;5002465;28;20421;-74
2023/05/28 10:16:03;;;;;;;;;;;25.50;46.80;;;;;;5037894;28;19941;-74
2023/05/28 10:18:30;;;;;;;;;;;26.00;45.30;;;;;;5006992;28;19936;-74
2023/05/28 10:20:58;;;;;;;;;;;26.30;45.50;;;;;;4997882;28;20012;-74
2023/05/28 10:23:25;;;;;;;;;;;26.20;43.90;;;;;;5002312;28;19930;-74
2023/05/28 10:25:52;;;;;;;;;;;26.40;43.80;;;;;;5027371;28;19934;-74
2023/05/28 10:28:19;;;;;;;;;;;26.00;45.20;;;;;;5001748;28;19969;-74
2023/05/28 10:30:59;;;;;;;;;;;26.30;45.20;;;;;;5004265;28;19930;-72
2023/05/28 10:33:25;;;;;;;;;;;26.90;43.80;;;;;;5013161;28;19963;-73
2023/05/28 10:35:53;;;;;;;;;;;27.40;43.90;;;;;;4999347;28;20285;-73
2023/05/28 10:38:21;;;;;;;;;;;27.70;41.90;;;;;;5006470;28;19937;-74
2023/05/28 10:40:51;;;;;;;;;;;27.90;41.90;;;;;;5000130;28;19935;-75
2023/05/28 10:43:36;;;;;;;;;;;27.60;41.00;;;;;;4999088;28;19987;-75
2023/05/28 10:46:03;;;;;;;;;;;27.60;41.50;;;;;;5004035;28;19956;-74
2023/05/28 10:48:30;;;;;;;;;;;27.80;40.50;;;;;;5002029;28;20771;-74
2023/05/28 10:50:58;;;;;;;;;;;27.70;40.10;;;;;;5003150;28;19929;-73
2023/05/28 10:53:25;;;;;;;;;;;27.90;41.20;;;;;;4998782;28;19972;-74
2023/05/28 10:55:53;;;;;;;;;;;28.00;39.20;;;;;;5009330;28;19987;-74
2023/05/28 10:58:34;;;;;;;;;;;27.70;40.00;;;;;;5003294;28;20703;-74
2023/05/28 11:01:04;;;;;;;;;;;27.90;39.40;;;;;;5004343;28;19939;-74
2023/05/28 11:03:45;;;;;;;;;;;27.60;39.80;;;;;;5011628;28;20052;-74
2023/05/28 11:06:12;;;;;;;;;;;28.10;39.30;;;;;;5001796;28;19930;-74
2023/05/28 11:08:43;;;;;;;;;;;28.00;39.90;;;;;;5001216;28;20614;-74
2023/05/28 11:11:11;;;;;;;;;;;28.00;38.10;;;;;;5002582;28;20628;-74
2023/05/28 11:13:42;;;;;;;;;;;28.30;38.40;;;;;;5001285;28;20049;-73
2023/05/28 11:16:10;;;;;;;;;;;27.60;39.70;;;;;;5002260;28;19929;-74
2023/05/28 11:18:37;;;;;;;;;;;27.60;37.60;;;;;;5014015;28;19940;-74
2023/05/28 11:21:04;;;;;;;;;;;27.10;38.70;;;;;;4996373;28;20561;-72
2023/05/28 11:23:31;;;;;;;;;;;27.10;40.00;;;;;;5026879;23;20453;-75
2023/05/28 11:25:58;;;;;;;;;;;27.30;38.90;;;;;;5005625;28;20442;-74
2023/05/28 11:28:47;;;;;;;;;;;27.50;38.80;;;;;;5006503;28;19940;-74
2023/05/28 11:31:13;;;;;;;;;;;27.20;37.40;;;;;;5008037;28;19939;-74
2023/05/28 11:33:40;;;;;;;;;;;26.70;38.80;;;;;;5009892;28;19929;-75
2023/05/28 11:36:08;;;;;;;;;;;26.70;41.20;;;;;;5012657;28;20003;-76
2023/05/28 11:38:35;;;;;;;;;;;26.70;39.80;;;;;;5010792;28;19933;-75
2023/05/28 11:41:02;;;;;;;;;;;26.20;40.00;;;;;;5007984;28;20388;-76
2023/05/28 11:43:28;;;;;;;;;;;26.00;40.20;;;;;;5003543;28;19936;-75
2023/05/28 11:45:56;;;;;;;;;;;25.20;41.00;;;;;;5015458;28;19929;-74
2023/05/28 11:48:24;;;;;;;;;;;25.30;41.00;;;;;;5010145;28;19945;-74
2023/05/28 11:50:58;;;;;;;;;;;24.70;43.00;;;;;;5002651;28;20031;-75
2023/05/28 11:53:36;;;;;;;;;;;25.00;44.20;;;;;;5014541;28;20590;-74
2023/05/28 11:56:03;;;;;;;;;;;25.10;41.20;;;;;;5014457;28;20406;-75
2023/05/28 11:58:30;;;;;;;;;;;25.30;43.00;;;;;;5012307;28;19994;-75
2023/05/28 12:00:57;;;;;;;;;;;25.70;42.30;;;;;;5007738;28;19936;-75
2023/05/28 12:03:27;;;;;;;;;;;25.90;42.40;;;;;;5018718;28;19933;-75
2023/05/28 12:05:54;;;;;;;;;;;26.50;43.30;;;;;;5010250;28;19937;-75
2023/05/28 12:08:20;;;;;;;;;;;26.90;39.60;;;;;;5012338;28;20400;-75
2023/05/28 12:10:47;;;;;;;;;;;26.40;39.50;;;;;;5008698;28;19935;-75
2023/05/28 12:13:14;;;;;;;;;;;26.40;39.70;;;;;;5010090;28;20068;-75
2023/05/28 12:15:41;;;;;;;;;;;25.60;41.40;;;;;;5005766;28;19968;-75
2023/05/28 12:18:08;;;;;;;;;;;25.60;41.00;;;;;;5008185;28;20043;-75
2023/05/28 12:20:35;;;;;;;;;;;25.20;39.80;;;;;;5021068;28;19931;-75
2023/05/28 12:23:12;;;;;;;;;;;24.90;42.70;;;;;;5006075;28;19929;-75
2023/05/28 12:25:42;;;;;;;;;;;25.50;42.40;;;;;;5012311;28;20317;-75
2023/05/28 12:28:12;;;;;;;;;;;25.60;41.40;;;;;;5023028;28;19939;-75
2023/05/28 12:30:41;;;;;;;;;;;25.70;41.80;;;;;;5004618;28;19936;-75
2023/05/28 12:33:09;;;;;;;;;;;25.30;40.70;;;;;;5018096;28;19929;-75
2023/05/28 12:35:35;;;;;;;;;;;25.30;42.30;;;;;;5001695;28;19930;-75
2023/05/28 12:38:03;;;;;;;;;;;25.50;41.40;;;;;;5019749;28;19929;-75
2023/05/28 12:40:30;;;;;;;;;;;25.60;41.20;;;;;;5004628;28;19935;-75
2023/05/28 12:42:57;;;;;;;;;;;25.40;41.10;;;;;;5018699;28;19956;-74
2023/05/28 12:45:23;;;;;;;;;;;25.20;40.50;;;;;;5019746;28;20397;-76
2023/05/28 12:47:50;;;;;;;;;;;24.80;40.30;;;;;;5013751;28;19929;-74
2023/05/28 12:50:17;;;;;;;;;;;24.50;41.60;;;;;;5021701;28;19929;-75
2023/05/28 12:52:44;;;;;;;;;;;24.50;42.30;;;;;;5020462;28;20572;-75
2023/05/28 12:55:11;;;;;;;;;;;25.00;41.90;;;;;;5016403;28;19969;-74
2023/05/28 12:57:42;;;;;;;;;;;25.10;42.60;;;;;;5007722;28;20627;-75
2023/05/28 13:00:10;;;;;;;;;;;25.30;41.60;;;;;;5019919;28;20321;-75
2023/05/28 13:02:38;;;;;;;;;;;25.20;41.70;;;;;;5011756;28;19929;-74
2023/05/28 13:05:05;;;;;;;;;;;25.70;41.60;;;;;;5017102;28;19940;-75
2023/05/28 13:07:32;;;;;;;;;;;25.60;42.40;;;;;;5010189;28;20047;-75
2023/05/28 13:09:59;;;;;;;;;;;25.50;41.30;;;;;;5012887;28;19991;-74
2023/05/28 13:12:26;;;;;;;;;;;25.30;41.90;;;;;;5012526;28;20007;-74
2023/05/28 13:14:52;;;;;;;;;;;25.00;42.50;;;;;;5014818;28;19967;-72
2023/05/28 13:17:20;;;;;;;;;;;24.60;43.30;;;;;;5014913;28;19988;-74
2023/05/28 13:19:47;;;;;;;;;;;24.30;43.40;;;;;;5019429;28;20007;-74
2023/05/28 13:22:14;;;;;;;;;;;23.90;43.80;;;;;;5014598;28;19930;-73
2023/05/28 13:24:41;;;;;;;;;;;23.70;44.50;;;;;;5015700;28;20337;-75
2023/05/28 13:27:13;;;;;;;;;;;24.00;45.90;;;;;;5014985;28;19930;-74
2023/05/28 13:29:40;;;;;;;;;;;24.10;43.70;;;;;;5017187;28;19929;-75
2023/05/28 13:32:07;;;;;;;;;;;24.10;44.40;;;;;;5014223;28;19937;-74
2023/05/28 13:34:34;;;;;;;;;;;23.90;43.00;;;;;;5018594;28;19984;-74
2023/05/28 13:37:01;;;;;;;;;;;23.80;43.30;;;;;;5015123;28;19929;-75
2023/05/28 13:39:29;;;;;;;;;;;23.60;44.10;;;;;;5005752;28;19929;-75
2023/05/28 13:41:57;;;;;;;;;;;23.90;42.80;;;;;;5006303;28;20017;-73
2023/05/28 13:44:24;;;;;;;;;;;24.00;43.90;;;;;;5021351;28;20376;-74
2023/05/28 13:46:51;;;;;;;;;;;23.90;43.60;;;;;;5009119;28;20425;-73
2023/05/28 13:49:18;;;;;;;;;;;23.80;43.80;;;;;;5010207;28;19929;-74
2023/05/28 13:51:45;;;;;;;;;;;24.40;43.50;;;;;;5006185;28;20584;-76
2023/05/28 13:54:12;;;;;;;;;;;24.70;43.20;;;;;;5017154;28;19933;-74
2023/05/28 13:56:41;;;;;;;;;;;25.10;41.20;;;;;;5021702;28;19932;-74
2023/05/28 13:59:08;;;;;;;;;;;25.40;41.20;;;;;;5025203;28;20059;-75
2023/05/28 14:01:36;;;;;;;;;;;25.50;41.00;;;;;;5024045;28;19940;-75
2023/05/28 14:04:03;;;;;;;;;;;25.50;40.40;;;;;;5017671;28;19941;-75
2023/05/28 14:06:32;;;;;;;;;;;25.20;40.00;;;;;;5010981;28;19933;-75
2023/05/28 14:08:59;;;;;;;;;;;25.30;40.20;;;;;;5015791;28;20040;-75
2023/05/28 14:11:25;;;;;;;;;;;25.60;39.50;;;;;;5017222;28;20355;-75
2023/05/28 14:14:12;;;;;;;;;;;25.70;38.80;;;;;;5016754;28;19929;-75
2023/05/28 14:16:38;;;;;;;;;;;25.70;38.50;;;;;;5014285;28;19929;-75
2023/05/28 14:19:05;;;;;;;;;;;25.50;38.10;;;;;;5006727;28;20454;-75
2023/05/28 14:21:32;;;;;;;;;;;25.30;37.70;;;;;;5023816;28;19929;-75
2023/05/28 14:23:59;;;;;;;;;;;25.50;38.20;;;;;;5015708;28;20277;-75